sensor_id;sensor_type;location;lat;lon;timestamp;P1;durP1;ratioP1;P2;durP2;ratioP2
1122;SDS011;548;48.778;9.252;2023-06-14T00:01:01;14.70;;;13.80;;
1122;SDS011;548;48.778;9.252;2023-06-14T00:03:31;15.77;;;14.47;;
1122;SDS011;548;48.778;9.252;2023-06-14T00:05:57;15.33;;;14.43;;
1122;SDS011;548;48.778;9.252;2023-06-14T00:08:24;15.70;;;14.60;;
1122;SDS011;548;48.778;9.252;2023-06-14T00:10:51;17.43;;;16.10;;
1122;SDS011;548;48.778;9.252;2023-06-14T00:13:18;16.50;;;15.40;;
1122;SDS011;548;48.778;9.252;2023-06-14T00:15:46;15.97;;;14.80;;
1122;SDS011;548;48.778;9.252;2023-06-14T00:18:13;14.63;;;13.63;;
1122;SDS011;548;48.778;9.252;2023-06-14T00:20:41;16.00;;;15.10;;
1122;SDS011;548;48.778;9.252;2023-06-14T00:23:08;17.13;;;15.63;;
1122;SDS011;548;48.778;9.252;2023-06-14T00:25:35;16.10;;;14.93;;
1122;SDS011;548;48.778;9.252;2023-06-14T00:28:02;16.80;;;15.70;;
1122;SDS011;548;48.778;9.252;2023-06-14T00:30:28;16.93;;;15.43;;
1122;SDS011;548;48.778;9.252;2023-06-14T00:32:56;16.00;;;14.90;;
1122;SDS011;548;48.778;9.252;2023-06-14T00:35:23;15.63;;;14.43;;
1122;SDS011;548;48.778;9.252;2023-06-14T00:37:50;16.37;;;15.33;;
1122;SDS011;548;48.778;9.252;2023-06-14T00:40:17;15.87;;;14.77;;
1122;SDS011;548;48.778;9.252;2023-06-14T00:42:43;15.67;;;14.20;;
1122;SDS011;548;48.778;9.252;2023-06-14T00:45:10;16.17;;;15.17;;
1122;SDS011;548;48.778;9.252;2023-06-14T00:47:37;16.73;;;15.63;;
1122;SDS011;548;48.778;9.252;2023-06-14T00:50:07;16.87;;;15.67;;
1122;SDS011;548;48.778;9.252;2023-06-14T00:52:34;17.07;;;16.00;;
1122;SDS011;548;48.778;9.252;2023-06-14T00:55:01;15.80;;;14.80;;
1122;SDS011;548;48.778;9.252;2023-06-14T00:57:29;17.77;;;16.30;;
1122;SDS011;548;48.778;9.252;2023-06-14T00:59:55;17.23;;;16.10;;
1122;SDS011;548;48.778;9.252;2023-06-14T01:02:22;16.87;;;15.77;;
1122;SDS011;548;48.778;9.252;2023-06-14T01:04:50;17.47;;;16.17;;
1122;SDS011;548;48.778;9.252;2023-06-14T01:07:22;17.20;;;15.90;;
1122;SDS011;548;48.778;9.252;2023-06-14T01:09:58;17.37;;;15.97;;
1122;SDS011;548;48.778;9.252;2023-06-14T01:12:39;16.60;;;15.47;;
1122;SDS011;548;48.778;9.252;2023-06-14T01:15:14;17.40;;;16.20;;
1122;SDS011;548;48.778;9.252;2023-06-14T01:17:41;18.47;;;17.30;;
1122;SDS011;548;48.778;9.252;2023-06-14T01:23:35;19.97;;;18.13;;
1122;SDS011;548;48.778;9.252;2023-06-14T01:26:01;20.30;;;19.00;;
1122;SDS011;548;48.778;9.252;2023-06-14T01:28:29;19.23;;;17.73;;
1122;SDS011;548;48.778;9.252;2023-06-14T01:31:00;17.93;;;16.47;;
1122;SDS011;548;48.778;9.252;2023-06-14T01:33:29;19.03;;;17.20;;
1122;SDS011;548;48.778;9.252;2023-06-14T01:35:58;19.97;;;18.17;;
1122;SDS011;548;48.778;9.252;2023-06-14T01:38:27;18.77;;;17.27;;
1122;SDS011;548;48.778;9.252;2023-06-14T01:40:57;19.07;;;17.57;;
1122;SDS011;548;48.778;9.252;2023-06-14T01:43:25;19.80;;;18.10;;
1122;SDS011;548;48.778;9.252;2023-06-14T01:45:53;18.20;;;16.80;;
1122;SDS011;548;48.778;9.252;2023-06-14T01:48:21;20.00;;;18.40;;
1122;SDS011;548;48.778;9.252;2023-06-14T01:50:48;18.80;;;17.30;;
1122;SDS011;548;48.778;9.252;2023-06-14T01:53:15;18.23;;;17.03;;
1122;SDS011;548;48.778;9.252;2023-06-14T01:55:42;19.03;;;17.67;;
1122;SDS011;548;48.778;9.252;2023-06-14T01:58:10;19.27;;;17.73;;
1122;SDS011;548;48.778;9.252;2023-06-14T02:00:38;20.27;;;18.93;;
1122;SDS011;548;48.778;9.252;2023-06-14T02:03:05;19.80;;;18.10;;
1122;SDS011;548;48.778;9.252;2023-06-14T02:05:32;19.30;;;18.00;;
1122;SDS011;548;48.778;9.252;2023-06-14T02:07:59;20.90;;;19.30;;
1122;SDS011;548;48.778;9.252;2023-06-14T02:10:26;21.37;;;19.67;;
1122;SDS011;548;48.778;9.252;2023-06-14T02:12:53;20.17;;;18.77;;
1122;SDS011;548;48.778;9.252;2023-06-14T02:15:21;18.87;;;17.50;;
1122;SDS011;548;48.778;9.252;2023-06-14T02:17:48;19.67;;;18.17;;
1122;SDS011;548;48.778;9.252;2023-06-14T02:20:15;21.33;;;19.80;;
1122;SDS011;548;48.778;9.252;2023-06-14T02:22:43;20.47;;;19.13;;
1122;SDS011;548;48.778;9.252;2023-06-14T02:25:10;19.20;;;17.70;;
1122;SDS011;548;48.778;9.252;2023-06-14T02:27:36;20.53;;;19.13;;
1122;SDS011;548;48.778;9.252;2023-06-14T02:30:03;19.20;;;17.90;;
1122;SDS011;548;48.778;9.252;2023-06-14T02:32:32;20.20;;;18.67;;
1122;SDS011;548;48.778;9.252;2023-06-14T02:35:00;20.30;;;18.87;;
1122;SDS011;548;48.778;9.252;2023-06-14T02:37:27;19.10;;;17.60;;
1122;SDS011;548;48.778;9.252;2023-06-14T02:39:54;20.37;;;19.00;;
1122;SDS011;548;48.778;9.252;2023-06-14T02:42:22;20.40;;;18.90;;
1122;SDS011;548;48.778;9.252;2023-06-14T02:44:48;20.67;;;18.93;;
1122;SDS011;548;48.778;9.252;2023-06-14T02:47:16;19.37;;;17.57;;
1122;SDS011;548;48.778;9.252;2023-06-14T02:49:44;18.60;;;16.90;;
1122;SDS011;548;48.778;9.252;2023-06-14T02:52:11;20.10;;;18.70;;
1122;SDS011;548;48.778;9.252;2023-06-14T02:54:38;18.77;;;17.47;;
1122;SDS011;548;48.778;9.252;2023-06-14T02:57:05;19.60;;;17.80;;
1122;SDS011;548;48.778;9.252;2023-06-14T02:59:32;19.10;;;17.33;;
1122;SDS011;548;48.778;9.252;2023-06-14T03:01:58;18.63;;;17.30;;
1122;SDS011;548;48.778;9.252;2023-06-14T03:04:25;19.73;;;18.30;;
1122;SDS011;548;48.778;9.252;2023-06-14T03:06:53;19.97;;;18.57;;
1122;SDS011;548;48.778;9.252;2023-06-14T03:09:20;18.00;;;16.60;;
1122;SDS011;548;48.778;9.252;2023-06-14T03:11:46;18.43;;;17.23;;
1122;SDS011;548;48.778;9.252;2023-06-14T03:14:13;19.17;;;17.70;;
1122;SDS011;548;48.778;9.252;2023-06-14T03:16:42;18.40;;;17.00;;
1122;SDS011;548;48.778;9.252;2023-06-14T03:19:09;19.90;;;18.50;;
1122;SDS011;548;48.778;9.252;2023-06-14T03:21:35;18.50;;;16.73;;
1122;SDS011;548;48.778;9.252;2023-06-14T03:24:05;19.10;;;17.90;;
1122;SDS011;548;48.778;9.252;2023-06-14T03:26:32;19.73;;;18.33;;
1122;SDS011;548;48.778;9.252;2023-06-14T03:28:59;20.00;;;18.50;;
1122;SDS011;548;48.778;9.252;2023-06-14T03:31:26;20.87;;;19.30;;
1122;SDS011;548;48.778;9.252;2023-06-14T03:33:57;19.97;;;18.40;;
1122;SDS011;548;48.778;9.252;2023-06-14T03:36:24;19.23;;;17.77;;
1122;SDS011;548;48.778;9.252;2023-06-14T03:38:51;19.00;;;17.60;;
1122;SDS011;548;48.778;9.252;2023-06-14T03:41:19;18.80;;;17.53;;
1122;SDS011;548;48.778;9.252;2023-06-14T03:43:46;19.53;;;17.93;;
1122;SDS011;548;48.778;9.252;2023-06-14T03:46:12;19.60;;;18.10;;
1122;SDS011;548;48.778;9.252;2023-06-14T03:48:39;23.03;;;19.63;;
1122;SDS011;548;48.778;9.252;2023-06-14T03:51:06;18.97;;;17.23;;
1122;SDS011;548;48.778;9.252;2023-06-14T03:53:32;20.60;;;19.00;;
1122;SDS011;548;48.778;9.252;2023-06-14T03:56:00;19.53;;;18.30;;
1122;SDS011;548;48.778;9.252;2023-06-14T03:58:28;25.20;;;22.70;;
1122;SDS011;548;48.778;9.252;2023-06-14T04:00:55;23.80;;;21.43;;
1122;SDS011;548;48.778;9.252;2023-06-14T04:03:22;18.40;;;17.23;;
1122;SDS011;548;48.778;9.252;2023-06-14T04:05:50;20.37;;;18.90;;
1122;SDS011;548;48.778;9.252;2023-06-14T04:08:21;19.63;;;18.37;;
1122;SDS011;548;48.778;9.252;2023-06-14T04:10:49;18.20;;;16.90;;
1122;SDS011;548;48.778;9.252;2023-06-14T04:13:16;19.10;;;17.90;;
1122;SDS011;548;48.778;9.252;2023-06-14T04:15:44;20.07;;;18.47;;
1122;SDS011;548;48.778;9.252;2023-06-14T04:18:11;18.10;;;16.87;;
1122;SDS011;548;48.778;9.252;2023-06-14T04:20:38;19.13;;;17.73;;
1122;SDS011;548;48.778;9.252;2023-06-14T04:23:12;20.43;;;18.43;;
1122;SDS011;548;48.778;9.252;2023-06-14T04:25:39;20.50;;;18.53;;
1122;SDS011;548;48.778;9.252;2023-06-14T04:28:10;24.40;;;19.30;;
1122;SDS011;548;48.778;9.252;2023-06-14T04:30:37;19.90;;;18.23;;
1122;SDS011;548;48.778;9.252;2023-06-14T04:33:07;20.13;;;18.30;;
1122;SDS011;548;48.778;9.252;2023-06-14T04:35:35;19.60;;;18.30;;
1122;SDS011;548;48.778;9.252;2023-06-14T04:38:02;20.70;;;18.83;;
1122;SDS011;548;48.778;9.252;2023-06-14T04:40:34;19.60;;;17.70;;
1122;SDS011;548;48.778;9.252;2023-06-14T04:43:01;20.60;;;18.77;;
1122;SDS011;548;48.778;9.252;2023-06-14T04:45:30;18.00;;;16.60;;
1122;SDS011;548;48.778;9.252;2023-06-14T04:47:58;18.50;;;17.20;;
1122;SDS011;548;48.778;9.252;2023-06-14T04:50:26;19.00;;;17.70;;
1122;SDS011;548;48.778;9.252;2023-06-14T04:52:54;18.20;;;16.93;;
1122;SDS011;548;48.778;9.252;2023-06-14T04:55:21;18.20;;;16.87;;
1122;SDS011;548;48.778;9.252;2023-06-14T04:57:49;17.83;;;16.73;;
1122;SDS011;548;48.778;9.252;2023-06-14T05:00:18;15.83;;;15.03;;
1122;SDS011;548;48.778;9.252;2023-06-14T05:02:45;20.07;;;18.67;;
1122;SDS011;548;48.778;9.252;2023-06-14T05:05:14;18.77;;;17.70;;
1122;SDS011;548;48.778;9.252;2023-06-14T05:07:42;16.93;;;16.03;;
1122;SDS011;548;48.778;9.252;2023-06-14T05:10:09;18.27;;;16.97;;
1122;SDS011;548;48.778;9.252;2023-06-14T05:12:35;17.70;;;16.40;;
1122;SDS011;548;48.778;9.252;2023-06-14T05:15:02;18.43;;;17.13;;
1122;SDS011;548;48.778;9.252;2023-06-14T05:17:29;16.73;;;15.80;;
1122;SDS011;548;48.778;9.252;2023-06-14T05:19:56;18.03;;;16.97;;
1122;SDS011;548;48.778;9.252;2023-06-14T05:22:23;17.67;;;16.67;;
1122;SDS011;548;48.778;9.252;2023-06-14T05:24:51;18.27;;;17.07;;
1122;SDS011;548;48.778;9.252;2023-06-14T05:27:18;18.53;;;17.10;;
1122;SDS011;548;48.778;9.252;2023-06-14T05:29:45;19.57;;;18.37;;
1122;SDS011;548;48.778;9.252;2023-06-14T05:32:11;18.13;;;16.83;;
1122;SDS011;548;48.778;9.252;2023-06-14T05:34:38;18.30;;;16.93;;
1122;SDS011;548;48.778;9.252;2023-06-14T05:37:05;18.30;;;17.20;;
1122;SDS011;548;48.778;9.252;2023-06-14T05:39:32;17.30;;;16.10;;
1122;SDS011;548;48.778;9.252;2023-06-14T05:42:00;17.10;;;15.97;;
1122;SDS011;548;48.778;9.252;2023-06-14T05:44:27;17.50;;;16.17;;
1122;SDS011;548;48.778;9.252;2023-06-14T05:46:53;17.23;;;15.90;;
1122;SDS011;548;48.778;9.252;2023-06-14T05:49:20;18.13;;;16.80;;
1122;SDS011;548;48.778;9.252;2023-06-14T05:51:47;18.30;;;17.07;;
1122;SDS011;548;48.778;9.252;2023-06-14T05:54:13;17.90;;;16.97;;
1122;SDS011;548;48.778;9.252;2023-06-14T05:56:40;17.20;;;16.10;;
1122;SDS011;548;48.778;9.252;2023-06-14T05:59:08;17.33;;;16.53;;
1122;SDS011;548;48.778;9.252;2023-06-14T06:01:35;18.57;;;16.97;;
1122;SDS011;548;48.778;9.252;2023-06-14T06:04:02;17.27;;;16.27;;
1122;SDS011;548;48.778;9.252;2023-06-14T06:06:29;17.37;;;16.37;;
1122;SDS011;548;48.778;9.252;2023-06-14T06:08:55;17.00;;;16.07;;
1122;SDS011;548;48.778;9.252;2023-06-14T06:11:22;18.43;;;16.90;;
1122;SDS011;548;48.778;9.252;2023-06-14T06:13:49;17.07;;;16.20;;
1122;SDS011;548;48.778;9.252;2023-06-14T06:16:17;17.27;;;16.37;;
1122;SDS011;548;48.778;9.252;2023-06-14T06:18:44;17.00;;;16.00;;
1122;SDS011;548;48.778;9.252;2023-06-14T06:21:10;17.50;;;16.70;;
1122;SDS011;548;48.778;9.252;2023-06-14T06:23:37;17.97;;;16.87;;
1122;SDS011;548;48.778;9.252;2023-06-14T06:26:04;18.80;;;17.30;;
1122;SDS011;548;48.778;9.252;2023-06-14T06:28:31;17.43;;;16.47;;
1122;SDS011;548;48.778;9.252;2023-06-14T06:30:57;18.40;;;17.40;;
1122;SDS011;548;48.778;9.252;2023-06-14T06:33:26;17.83;;;16.93;;
1122;SDS011;548;48.778;9.252;2023-06-14T06:35:52;16.67;;;15.90;;
1122;SDS011;548;48.778;9.252;2023-06-14T06:38:19;17.97;;;16.77;;
1122;SDS011;548;48.778;9.252;2023-06-14T06:40:46;17.53;;;16.53;;
1122;SDS011;548;48.778;9.252;2023-06-14T06:43:12;17.53;;;16.50;;
1122;SDS011;548;48.778;9.252;2023-06-14T06:45:41;18.23;;;17.30;;
1122;SDS011;548;48.778;9.252;2023-06-14T06:48:08;18.70;;;17.53;;
1122;SDS011;548;48.778;9.252;2023-06-14T06:50:36;17.90;;;16.73;;
1122;SDS011;548;48.778;9.252;2023-06-14T06:53:03;17.43;;;16.40;;
1122;SDS011;548;48.778;9.252;2023-06-14T06:55:31;17.47;;;16.67;;
1122;SDS011;548;48.778;9.252;2023-06-14T06:57:58;19.00;;;17.90;;
1122;SDS011;548;48.778;9.252;2023-06-14T07:00:25;18.57;;;17.57;;
1122;SDS011;548;48.778;9.252;2023-06-14T07:02:52;18.67;;;17.77;;
1122;SDS011;548;48.778;9.252;2023-06-14T07:05:21;18.90;;;18.00;;
1122;SDS011;548;48.778;9.252;2023-06-14T07:07:50;17.43;;;16.20;;
1122;SDS011;548;48.778;9.252;2023-06-14T07:10:16;17.17;;;16.17;;
1122;SDS011;548;48.778;9.252;2023-06-14T07:12:43;16.30;;;15.50;;
1122;SDS011;548;48.778;9.252;2023-06-14T07:15:11;17.50;;;16.43;;
1122;SDS011;548;48.778;9.252;2023-06-14T07:17:38;16.97;;;15.33;;
1122;SDS011;548;48.778;9.252;2023-06-14T07:20:05;18.53;;;17.40;;
1122;SDS011;548;48.778;9.252;2023-06-14T07:22:38;16.00;;;15.00;;
1122;SDS011;548;48.778;9.252;2023-06-14T07:25:08;16.80;;;16.00;;
1122;SDS011;548;48.778;9.252;2023-06-14T07:27:37;17.90;;;17.03;;
1122;SDS011;548;48.778;9.252;2023-06-14T07:30:05;17.00;;;16.20;;
1122;SDS011;548;48.778;9.252;2023-06-14T07:32:33;17.97;;;17.10;;
1122;SDS011;548;48.778;9.252;2023-06-14T07:35:00;17.47;;;16.77;;
1122;SDS011;548;48.778;9.252;2023-06-14T07:37:26;17.30;;;16.30;;
1122;SDS011;548;48.778;9.252;2023-06-14T07:39:53;17.60;;;16.80;;
1122;SDS011;548;48.778;9.252;2023-06-14T07:42:21;18.40;;;17.20;;
1122;SDS011;548;48.778;9.252;2023-06-14T07:44:48;17.83;;;17.03;;
1122;SDS011;548;48.778;9.252;2023-06-14T07:47:15;19.30;;;18.10;;
1122;SDS011;548;48.778;9.252;2023-06-14T07:49:42;17.53;;;16.73;;
1122;SDS011;548;48.778;9.252;2023-06-14T07:52:09;18.87;;;17.87;;
1122;SDS011;548;48.778;9.252;2023-06-14T07:54:36;18.90;;;18.00;;
1122;SDS011;548;48.778;9.252;2023-06-14T07:57:03;19.27;;;18.33;;
1122;SDS011;548;48.778;9.252;2023-06-14T07:59:32;19.50;;;18.60;;
1122;SDS011;548;48.778;9.252;2023-06-14T08:01:59;18.43;;;17.53;;
1122;SDS011;548;48.778;9.252;2023-06-14T08:04:26;18.70;;;17.37;;
1122;SDS011;548;48.778;9.252;2023-06-14T08:06:52;19.23;;;18.03;;
1122;SDS011;548;48.778;9.252;2023-06-14T08:09:19;19.00;;;17.97;;
1122;SDS011;548;48.778;9.252;2023-06-14T08:13:17;18.20;;;17.40;;
1122;SDS011;548;48.778;9.252;2023-06-14T08:15:13;18.77;;;17.77;;
1122;SDS011;548;48.778;9.252;2023-06-14T08:17:40;18.17;;;17.47;;
1122;SDS011;548;48.778;9.252;2023-06-14T08:20:07;19.10;;;18.20;;
1122;SDS011;548;48.778;9.252;2023-06-14T08:22:35;19.87;;;18.87;;
1122;SDS011;548;48.778;9.252;2023-06-14T08:25:02;17.53;;;16.73;;
1122;SDS011;548;48.778;9.252;2023-06-14T08:27:30;17.90;;;17.00;;
1122;SDS011;548;48.778;9.252;2023-06-14T08:29:56;17.80;;;17.00;;
1122;SDS011;548;48.778;9.252;2023-06-14T08:32:24;18.40;;;17.60;;
1122;SDS011;548;48.778;9.252;2023-06-14T08:34:51;18.27;;;17.43;;
1122;SDS011;548;48.778;9.252;2023-06-14T08:37:18;17.70;;;16.77;;
1122;SDS011;548;48.778;9.252;2023-06-14T08:39:45;18.13;;;17.43;;
1122;SDS011;548;48.778;9.252;2023-06-14T08:42:11;18.43;;;17.53;;
1122;SDS011;548;48.778;9.252;2023-06-14T18:07:45;14.93;;;14.20;;
1122;SDS011;548;48.778;9.252;2023-06-14T18:10:11;14.83;;;14.07;;
1122;SDS011;548;48.778;9.252;2023-06-14T18:12:40;14.53;;;13.73;;
1122;SDS011;548;48.778;9.252;2023-06-14T18:15:07;14.47;;;13.73;;
1122;SDS011;548;48.778;9.252;2023-06-14T18:17:35;16.27;;;15.00;;
1122;SDS011;548;48.778;9.252;2023-06-14T18:20:02;15.17;;;14.00;;
1122;SDS011;548;48.778;9.252;2023-06-14T18:22:29;15.77;;;14.90;;
1122;SDS011;548;48.778;9.252;2023-06-14T18:24:57;15.00;;;14.10;;
1122;SDS011;548;48.778;9.252;2023-06-14T18:27:24;15.33;;;14.53;;
1122;SDS011;548;48.778;9.252;2023-06-14T18:29:52;15.53;;;14.60;;
1122;SDS011;548;48.778;9.252;2023-06-14T18:32:18;13.30;;;12.70;;
1122;SDS011;548;48.778;9.252;2023-06-14T18:34:45;15.00;;;14.30;;
1122;SDS011;548;48.778;9.252;2023-06-14T18:37:12;14.60;;;13.80;;
1122;SDS011;548;48.778;9.252;2023-06-14T18:39:38;16.07;;;14.87;;
1122;SDS011;548;48.778;9.252;2023-06-14T18:42:06;15.23;;;14.27;;
1122;SDS011;548;48.778;9.252;2023-06-14T18:44:33;14.70;;;14.00;;
1122;SDS011;548;48.778;9.252;2023-06-14T18:47:00;13.80;;;13.20;;
1122;SDS011;548;48.778;9.252;2023-06-14T18:49:27;14.50;;;13.70;;
1122;SDS011;548;48.778;9.252;2023-06-14T18:51:53;14.17;;;13.23;;
1122;SDS011;548;48.778;9.252;2023-06-14T18:54:20;14.57;;;13.67;;
1122;SDS011;548;48.778;9.252;2023-06-14T18:56:47;14.53;;;13.80;;
1122;SDS011;548;48.778;9.252;2023-06-14T18:59:15;13.70;;;13.10;;
1122;SDS011;548;48.778;9.252;2023-06-14T19:01:41;15.63;;;14.40;;
1122;SDS011;548;48.778;9.252;2023-06-14T19:04:08;14.50;;;13.80;;
1122;SDS011;548;48.778;9.252;2023-06-14T19:06:35;15.27;;;14.57;;
1122;SDS011;548;48.778;9.252;2023-06-14T19:09:03;14.10;;;13.33;;
1122;SDS011;548;48.778;9.252;2023-06-14T19:11:29;16.20;;;14.97;;
1122;SDS011;548;48.778;9.252;2023-06-14T19:13:56;14.67;;;13.77;;
1122;SDS011;548;48.778;9.252;2023-06-14T19:16:24;14.53;;;13.83;;
1122;SDS011;548;48.778;9.252;2023-06-14T19:18:51;14.17;;;13.57;;
1122;SDS011;548;48.778;9.252;2023-06-14T19:21:17;14.70;;;14.10;;
1122;SDS011;548;48.778;9.252;2023-06-14T19:23:44;14.87;;;13.90;;
1122;SDS011;548;48.778;9.252;2023-06-14T19:26:11;14.77;;;14.13;;
1122;SDS011;548;48.778;9.252;2023-06-14T19:28:38;14.20;;;13.50;;
1122;SDS011;548;48.778;9.252;2023-06-14T19:31:04;13.50;;;12.80;;
1122;SDS011;548;48.778;9.252;2023-06-14T19:33:32;14.60;;;13.90;;
1122;SDS011;548;48.778;9.252;2023-06-14T19:35:59;14.60;;;13.87;;
1122;SDS011;548;48.778;9.252;2023-06-14T19:38:25;14.40;;;13.60;;
1122;SDS011;548;48.778;9.252;2023-06-14T19:40:56;14.37;;;13.63;;
1122;SDS011;548;48.778;9.252;2023-06-14T19:43:22;14.97;;;13.87;;
1122;SDS011;548;48.778;9.252;2023-06-14T19:45:49;14.40;;;13.60;;
1122;SDS011;548;48.778;9.252;2023-06-14T19:48:16;14.50;;;13.63;;
1122;SDS011;548;48.778;9.252;2023-06-14T19:50:44;14.20;;;13.57;;
1122;SDS011;548;48.778;9.252;2023-06-14T19:53:11;13.80;;;13.10;;
1122;SDS011;548;48.778;9.252;2023-06-14T19:55:37;13.03;;;12.53;;
1122;SDS011;548;48.778;9.252;2023-06-14T19:58:04;14.00;;;13.40;;
1122;SDS011;548;48.778;9.252;2023-06-14T20:00:31;13.60;;;12.90;;
1122;SDS011;548;48.778;9.252;2023-06-14T20:02:58;14.00;;;13.30;;
1122;SDS011;548;48.778;9.252;2023-06-14T20:05:25;14.03;;;13.23;;
1122;SDS011;548;48.778;9.252;2023-06-14T20:07:56;13.87;;;13.17;;
1122;SDS011;548;48.778;9.252;2023-06-14T20:10:23;13.60;;;12.90;;
1122;SDS011;548;48.778;9.252;2023-06-14T20:12:50;13.47;;;12.77;;
1122;SDS011;548;48.778;9.252;2023-06-14T20:15:16;13.83;;;13.13;;
1122;SDS011;548;48.778;9.252;2023-06-14T20:17:43;13.60;;;12.90;;
1122;SDS011;548;48.778;9.252;2023-06-14T20:20:10;15.43;;;13.87;;
1122;SDS011;548;48.778;9.252;2023-06-14T20:22:37;14.67;;;13.83;;
1122;SDS011;548;48.778;9.252;2023-06-14T20:25:05;14.13;;;13.33;;
1122;SDS011;548;48.778;9.252;2023-06-14T20:27:33;14.30;;;13.50;;
1122;SDS011;548;48.778;9.252;2023-06-14T20:30:00;14.47;;;13.57;;
1122;SDS011;548;48.778;9.252;2023-06-14T20:32:27;13.60;;;12.73;;
1122;SDS011;548;48.778;9.252;2023-06-14T20:34:54;13.43;;;12.83;;
1122;SDS011;548;48.778;9.252;2023-06-14T20:37:21;13.80;;;13.20;;
1122;SDS011;548;48.778;9.252;2023-06-14T20:39:48;14.43;;;13.40;;
1122;SDS011;548;48.778;9.252;2023-06-14T20:42:17;14.90;;;14.20;;
1122;SDS011;548;48.778;9.252;2023-06-14T20:44:46;13.70;;;13.00;;
1122;SDS011;548;48.778;9.252;2023-06-14T20:47:13;14.33;;;13.53;;
1122;SDS011;548;48.778;9.252;2023-06-14T20:49:40;13.63;;;12.83;;
1122;SDS011;548;48.778;9.252;2023-06-14T20:52:07;12.80;;;12.20;;
1122;SDS011;548;48.778;9.252;2023-06-14T20:54:34;13.80;;;13.00;;
1122;SDS011;548;48.778;9.252;2023-06-14T20:57:02;14.00;;;13.30;;
1122;SDS011;548;48.778;9.252;2023-06-14T20:59:31;13.60;;;12.80;;
1122;SDS011;548;48.778;9.252;2023-06-14T21:01:58;14.57;;;13.73;;
1122;SDS011;548;48.778;9.252;2023-06-14T21:04:25;13.87;;;12.80;;
1122;SDS011;548;48.778;9.252;2023-06-14T21:06:51;13.10;;;12.37;;
1122;SDS011;548;48.778;9.252;2023-06-14T21:09:18;13.63;;;12.70;;
1122;SDS011;548;48.778;9.252;2023-06-14T21:11:45;13.40;;;12.67;;
1122;SDS011;548;48.778;9.252;2023-06-14T21:14:12;13.70;;;13.00;;
1122;SDS011;548;48.778;9.252;2023-06-14T21:16:40;14.37;;;13.63;;
1122;SDS011;548;48.778;9.252;2023-06-14T21:19:07;15.17;;;13.83;;
1122;SDS011;548;48.778;9.252;2023-06-14T21:21:33;15.10;;;14.00;;
1122;SDS011;548;48.778;9.252;2023-06-14T21:24:00;15.87;;;14.73;;
1122;SDS011;548;48.778;9.252;2023-06-14T21:26:27;15.77;;;14.70;;
1122;SDS011;548;48.778;9.252;2023-06-14T21:28:53;15.03;;;14.13;;
1122;SDS011;548;48.778;9.252;2023-06-14T21:31:20;16.47;;;15.30;;
1122;SDS011;548;48.778;9.252;2023-06-14T21:33:48;15.20;;;14.30;;
1122;SDS011;548;48.778;9.252;2023-06-14T21:36:14;14.83;;;14.03;;
1122;SDS011;548;48.778;9.252;2023-06-14T21:38:41;15.50;;;14.60;;
1122;SDS011;548;48.778;9.252;2023-06-14T21:41:08;14.27;;;13.57;;
1122;SDS011;548;48.778;9.252;2023-06-14T21:43:35;15.87;;;14.87;;
1122;SDS011;548;48.778;9.252;2023-06-14T21:46:02;15.20;;;14.03;;
1122;SDS011;548;48.778;9.252;2023-06-14T21:48:28;14.40;;;13.50;;
1122;SDS011;548;48.778;9.252;2023-06-14T21:50:56;15.83;;;14.83;;
1122;SDS011;548;48.778;9.252;2023-06-14T21:53:23;13.53;;;12.83;;
1122;SDS011;548;48.778;9.252;2023-06-14T21:55:52;14.63;;;13.83;;
1122;SDS011;548;48.778;9.252;2023-06-14T21:58:19;14.00;;;13.23;;
1122;SDS011;548;48.778;9.252;2023-06-14T22:00:46;14.60;;;13.80;;
1122;SDS011;548;48.778;9.252;2023-06-14T22:03:12;14.50;;;13.53;;
1122;SDS011;548;48.778;9.252;2023-06-14T22:05:39;15.17;;;14.10;;
1122;SDS011;548;48.778;9.252;2023-06-14T22:08:07;13.07;;;12.37;;
1122;SDS011;548;48.778;9.252;2023-06-14T22:10:34;14.43;;;13.30;;
1122;SDS011;548;48.778;9.252;2023-06-14T22:13:02;14.63;;;13.60;;
1122;SDS011;548;48.778;9.252;2023-06-14T22:15:29;15.30;;;13.97;;
1122;SDS011;548;48.778;9.252;2023-06-14T22:17:58;14.13;;;13.33;;
1122;SDS011;548;48.778;9.252;2023-06-14T22:20:25;14.50;;;13.77;;
1122;SDS011;548;48.778;9.252;2023-06-14T22:22:54;13.73;;;13.00;;
1122;SDS011;548;48.778;9.252;2023-06-14T22:25:23;14.60;;;13.70;;
1122;SDS011;548;48.778;9.252;2023-06-14T22:27:50;14.90;;;13.87;;
1122;SDS011;548;48.778;9.252;2023-06-14T22:30:18;13.70;;;12.90;;
1122;SDS011;548;48.778;9.252;2023-06-14T22:32:45;15.90;;;14.47;;
1122;SDS011;548;48.778;9.252;2023-06-14T22:35:13;15.53;;;14.63;;
1122;SDS011;548;48.778;9.252;2023-06-14T22:37:40;15.43;;;14.50;;
1122;SDS011;548;48.778;9.252;2023-06-14T22:40:08;14.93;;;13.90;;
1122;SDS011;548;48.778;9.252;2023-06-14T22:42:37;15.57;;;14.43;;
1122;SDS011;548;48.778;9.252;2023-06-14T22:45:06;15.63;;;14.60;;
1122;SDS011;548;48.778;9.252;2023-06-14T22:47:36;15.63;;;14.63;;
1122;SDS011;548;48.778;9.252;2023-06-14T22:50:03;14.83;;;14.03;;
1122;SDS011;548;48.778;9.252;2023-06-14T22:52:30;16.20;;;15.00;;
1122;SDS011;548;48.778;9.252;2023-06-14T22:54:59;15.50;;;14.60;;
1122;SDS011;548;48.778;9.252;2023-06-14T22:57:26;14.77;;;14.07;;
1122;SDS011;548;48.778;9.252;2023-06-14T22:59:56;15.43;;;14.37;;
1122;SDS011;548;48.778;9.252;2023-06-14T23:02:23;15.37;;;14.30;;
1122;SDS011;548;48.778;9.252;2023-06-14T23:04:50;13.77;;;13.07;;
1122;SDS011;548;48.778;9.252;2023-06-14T23:07:18;14.40;;;13.60;;
1122;SDS011;548;48.778;9.252;2023-06-14T23:09:46;14.80;;;13.80;;
1122;SDS011;548;48.778;9.252;2023-06-14T23:12:13;15.00;;;13.90;;
1122;SDS011;548;48.778;9.252;2023-06-14T23:14:40;14.60;;;13.80;;
